createdAt,value
2019-03-15T00:02:00.423Z,2.10
2019-03-15T00:04:31.341Z,2.27
2019-03-15T00:07:02.745Z,2.33
2019-03-15T00:09:33.942Z,2.20
2019-03-15T00:12:05.248Z,2.47
2019-03-15T00:14:36.423Z,2.40
2019-03-15T00:17:07.405Z,2.67
2019-03-15T00:19:39.047Z,2.37
2019-03-15T00:22:09.995Z,2.20
2019-03-15T00:24:41.147Z,2.53
2019-03-15T00:27:12.375Z,2.20
2019-03-15T00:29:43.511Z,2.47
2019-03-15T00:32:15.351Z,2.23
2019-03-15T00:34:46.763Z,3.30
2019-03-15T00:37:17.681Z,2.80
2019-03-15T00:39:48.815Z,3.27
2019-03-15T00:42:19.720Z,2.77
2019-03-15T00:44:50.854Z,2.00
2019-03-15T00:47:22.076Z,2.47
2019-03-15T00:49:53.739Z,2.93
2019-03-15T00:52:25.626Z,2.50
2019-03-15T00:54:56.747Z,2.10
2019-03-15T00:57:27.654Z,2.00
2019-03-15T00:59:58.547Z,2.57
2019-03-15T01:02:29.696Z,2.00
2019-03-15T01:05:02.098Z,2.20
2019-03-15T01:07:33.297Z,1.83
2019-03-15T01:10:04.843Z,1.93
2019-03-15T01:12:35.982Z,2.17
2019-03-15T01:15:07.279Z,1.70
2019-03-15T01:17:38.709Z,1.70
2019-03-15T01:20:09.993Z,2.40
2019-03-15T01:22:41.127Z,2.03
2019-03-15T01:25:12.328Z,2.50
2019-03-15T01:27:43.363Z,2.30
2019-03-15T01:30:14.571Z,2.27
2019-03-15T01:32:45.712Z,1.93
2019-03-15T01:35:16.858Z,2.23
2019-03-15T01:37:48.020Z,1.90
2019-03-15T01:40:19.668Z,1.70
2019-03-15T01:42:50.807Z,2.50
2019-03-15T01:45:22.209Z,2.07
2019-03-15T01:47:53.363Z,2.23
2019-03-15T01:50:24.546Z,2.37
2019-03-15T01:52:55.823Z,2.60
2019-03-15T01:55:27.471Z,2.63
2019-03-15T01:57:58.878Z,2.10
2019-03-15T02:00:30.092Z,2.47
2019-03-15T02:03:06.596Z,1.83
2019-03-15T02:05:38.256Z,2.10
2019-03-15T02:08:11.984Z,2.00
2019-03-15T02:10:45.861Z,2.83
2019-03-15T02:13:21.615Z,1.80
2019-03-15T02:16:03.809Z,2.70
2019-03-15T02:18:39.231Z,2.60
2019-03-15T02:21:10.408Z,2.40
2019-03-15T02:23:41.559Z,2.00
2019-03-15T02:26:12.941Z,2.00
2019-03-15T02:28:44.080Z,2.10
2019-03-15T02:31:14.967Z,2.60
2019-03-15T02:33:46.116Z,2.70
2019-03-15T02:36:17.974Z,2.53
2019-03-15T02:38:49.131Z,2.23
2019-03-15T02:41:20.086Z,2.53
2019-03-15T02:43:51.262Z,1.97
2019-03-15T02:46:22.139Z,3.13
2019-03-15T02:48:53.043Z,2.73
2019-03-15T02:51:23.928Z,2.60
2019-03-15T02:53:56.068Z,2.40
2019-03-15T02:56:28.182Z,2.73
2019-03-15T02:58:59.334Z,2.67
2019-03-15T03:01:30.225Z,2.33
2019-03-15T03:04:01.368Z,2.37
2019-03-15T03:06:32.782Z,3.07
2019-03-15T03:09:05.513Z,2.63
2019-03-15T03:11:36.907Z,2.17
2019-03-15T03:14:08.313Z,2.50
2019-03-15T03:16:39.277Z,1.80
2019-03-15T03:19:10.432Z,2.07
2019-03-15T03:21:42.234Z,2.50
2019-03-15T03:24:13.324Z,2.57
2019-03-15T03:26:44.478Z,2.13
2019-03-15T03:29:15.612Z,2.10
2019-03-15T03:31:46.983Z,2.20
2019-03-15T03:34:17.875Z,2.43
2019-03-15T03:36:49.004Z,1.93
2019-03-15T03:39:20.418Z,2.53
2019-03-15T03:41:51.567Z,2.63
2019-03-15T03:44:22.986Z,2.37
2019-03-15T03:46:54.175Z,2.43
2019-03-15T03:49:25.331Z,2.27
2019-03-15T03:51:56.557Z,2.77
2019-03-15T03:54:27.591Z,1.90
2019-03-15T03:56:58.552Z,2.63
2019-03-15T03:59:29.519Z,2.33
2019-03-15T04:02:00.403Z,2.27
2019-03-15T04:04:31.723Z,2.23
2019-03-15T04:07:02.930Z,2.60
2019-03-15T04:09:33.830Z,2.43
2019-03-15T04:12:04.806Z,3.10
2019-03-15T04:14:35.962Z,2.90
2019-03-15T04:17:06.847Z,2.20
2019-03-15T04:19:38.059Z,2.63
2019-03-15T04:22:09.195Z,2.70
2019-03-15T04:24:40.729Z,3.20
2019-03-15T04:27:11.614Z,2.67
2019-03-15T04:29:42.775Z,2.73
2019-03-15T04:32:14.276Z,3.63
2019-03-15T04:34:45.445Z,2.60
2019-03-15T04:37:17.615Z,3.10
2019-03-15T04:39:48.759Z,3.10
2019-03-15T04:42:19.647Z,3.10
2019-03-15T04:44:51.019Z,2.93
2019-03-15T04:47:21.907Z,3.10
2019-03-15T04:49:52.807Z,3.20
2019-03-15T04:52:24.208Z,2.70
2019-03-15T04:54:55.615Z,3.00
2019-03-15T04:57:27.763Z,2.70
2019-03-15T04:59:58.892Z,3.20
2019-03-15T05:02:29.787Z,3.20
2019-03-15T05:05:01.205Z,4.07
2019-03-15T05:07:32.402Z,3.23
2019-03-15T05:10:03.804Z,3.27
2019-03-15T05:12:34.699Z,3.83
2019-03-15T05:15:06.112Z,3.57
2019-03-15T05:17:37.256Z,2.90
2019-03-15T05:20:08.579Z,3.67
2019-03-15T05:22:41.803Z,3.00
2019-03-15T05:25:16.598Z,3.07
2019-03-15T05:27:49.484Z,3.27
2019-03-15T05:30:20.624Z,3.43
2019-03-15T05:32:51.759Z,3.37
2019-03-15T05:35:22.935Z,2.93
2019-03-15T05:37:54.071Z,3.40
2019-03-15T05:40:24.979Z,2.87
2019-03-15T05:42:56.111Z,3.53
2019-03-15T05:45:27.255Z,3.77
2019-03-15T05:47:58.438Z,2.60
2019-03-15T05:50:29.593Z,2.90
2019-03-15T05:53:00.735Z,4.03
2019-03-15T05:55:32.003Z,2.47
2019-03-15T05:58:03.616Z,3.10
2019-03-15T06:00:35.967Z,3.00
2019-03-15T06:03:08.222Z,3.33
2019-03-15T06:05:39.347Z,3.37
2019-03-15T06:08:10.506Z,3.30
2019-03-15T06:10:41.416Z,3.33
2019-03-15T06:13:12.299Z,2.90
2019-03-15T06:15:43.688Z,2.93
2019-03-15T06:18:14.916Z,3.30
2019-03-15T06:20:45.818Z,2.57
2019-03-15T06:23:17.269Z,2.93
2019-03-15T06:25:48.403Z,2.97
2019-03-15T06:28:19.789Z,3.50
2019-03-15T06:30:50.923Z,2.70
2019-03-15T06:33:22.076Z,2.83
2019-03-15T06:35:53.219Z,2.77
2019-03-15T06:38:24.591Z,3.70
2019-03-15T06:40:55.739Z,3.10
2019-03-15T06:43:27.113Z,3.87
2019-03-15T06:45:58.251Z,4.87
2019-03-15T06:48:29.400Z,3.43
2019-03-15T06:51:00.821Z,3.00
2019-03-15T06:53:31.932Z,4.67
2019-03-15T06:56:03.420Z,4.10
2019-03-15T06:58:36.303Z,3.43
2019-03-15T07:01:07.833Z,4.60
2019-03-15T07:03:38.966Z,4.77
2019-03-15T07:06:10.358Z,4.30
2019-03-15T07:08:42.926Z,5.10
2019-03-15T07:11:14.069Z,5.30
2019-03-15T07:13:45.192Z,5.10
2019-03-15T07:16:16.461Z,5.40
2019-03-15T07:18:47.560Z,5.67
2019-03-15T07:21:18.872Z,4.97
2019-03-15T07:23:50.029Z,5.03
2019-03-15T07:26:21.137Z,4.13
2019-03-15T07:28:52.252Z,3.93
2019-03-15T07:31:23.388Z,4.50
2019-03-15T07:33:54.515Z,3.40
2019-03-15T07:36:25.871Z,3.47
2019-03-15T07:38:57.182Z,3.47
2019-03-15T07:41:28.063Z,3.47
2019-03-15T07:43:59.203Z,4.13
2019-03-15T07:46:30.327Z,4.43
2019-03-15T07:49:01.709Z,5.47
2019-03-15T07:51:32.835Z,5.37
2019-03-15T07:54:03.972Z,5.07
2019-03-15T07:56:35.107Z,5.87
2019-03-15T07:59:07.920Z,5.60
2019-03-15T08:01:39.129Z,7.00
2019-03-15T08:04:16.707Z,7.20
2019-03-15T08:06:43.472Z,6.63
2019-03-15T08:09:17.943Z,7.63
2019-03-15T08:11:49.180Z,7.50
2019-03-15T08:14:29.251Z,7.43
2019-03-15T08:17:02.476Z,8.20
2019-03-15T08:19:34.565Z,7.60
2019-03-15T08:22:06.079Z,8.17
2019-03-15T08:24:50.625Z,9.23
2019-03-15T08:27:10.755Z,9.50
2019-03-15T08:29:42.175Z,9.40
2019-03-15T08:32:13.388Z,9.67
2019-03-15T08:34:45.099Z,9.30
2019-03-15T08:37:16.003Z,8.80
2019-03-15T08:39:47.148Z,9.03
2019-03-15T08:42:18.299Z,9.20
2019-03-15T08:44:49.189Z,8.63
2019-03-15T08:47:21.742Z,8.93
2019-03-15T08:49:53.352Z,7.67
2019-03-15T08:52:24.284Z,8.07
2019-03-15T08:55:05.082Z,8.10
2019-03-15T08:57:28.872Z,8.60
2019-03-15T09:00:00.017Z,7.20
2019-03-15T09:02:31.730Z,7.40
2019-03-15T09:05:02.881Z,7.93
2019-03-15T09:07:37.940Z,10.03
2019-03-15T09:10:21.830Z,7.33
2019-03-15T09:12:43.868Z,7.00
2019-03-15T09:15:15.175Z,7.00
2019-03-15T09:17:46.148Z,6.33
2019-03-15T09:20:17.338Z,6.03
2019-03-15T09:22:48.486Z,5.57
2019-03-15T09:25:20.827Z,5.90
2019-03-15T09:27:52.097Z,5.60
2019-03-15T09:30:24.326Z,5.00
2019-03-15T09:32:55.576Z,5.27
2019-03-15T09:35:26.699Z,4.17
2019-03-15T09:37:58.083Z,4.10
2019-03-15T09:40:28.971Z,3.57
2019-03-15T09:43:00.196Z,3.40
2019-03-15T09:45:31.123Z,3.53
2019-03-15T09:48:02.524Z,3.20
2019-03-15T09:50:49.735Z,3.13
2019-03-15T09:53:06.561Z,3.67
2019-03-15T09:55:37.704Z,3.37
2019-03-15T09:58:08.631Z,3.43
2019-03-15T10:00:39.860Z,2.47
2019-03-15T10:03:21.691Z,3.40
2019-03-15T10:05:43.840Z,2.83
2019-03-15T10:08:14.747Z,3.77
2019-03-15T10:10:48.934Z,3.00
2019-03-15T10:13:18.743Z,3.10
2019-03-15T10:15:50.230Z,2.77
2019-03-15T10:18:22.732Z,4.80
2019-03-15T10:20:53.624Z,4.00
2019-03-15T10:23:24.762Z,3.13
2019-03-15T10:25:55.888Z,3.33
2019-03-15T10:28:27.052Z,2.30
2019-03-15T10:30:58.423Z,2.60
2019-03-15T10:33:29.567Z,2.60
2019-03-15T10:36:00.727Z,2.87
2019-03-15T10:38:31.876Z,3.30
2019-03-15T10:41:02.993Z,3.10
2019-03-15T10:43:34.139Z,3.20
2019-03-15T10:46:06.282Z,2.53
2019-03-15T10:48:37.700Z,2.50
2019-03-15T10:51:08.855Z,2.87
2019-03-15T10:53:40.105Z,2.30
2019-03-15T10:56:11.251Z,2.50
2019-03-15T10:58:43.643Z,2.87
2019-03-15T11:01:14.783Z,2.70
2019-03-15T11:03:45.703Z,3.47
2019-03-15T11:06:16.857Z,2.87
2019-03-15T11:08:48.010Z,2.77
2019-03-15T11:11:20.551Z,2.23
2019-03-15T11:13:51.715Z,3.30
2019-03-15T11:16:22.880Z,2.40
2019-03-15T11:18:53.799Z,2.53
2019-03-15T11:21:24.944Z,2.80
2019-03-15T11:23:56.345Z,2.43
2019-03-15T11:26:27.501Z,2.57
2019-03-15T11:28:58.630Z,2.23
2019-03-15T11:31:29.752Z,2.73
2019-03-15T11:34:00.983Z,2.77
2019-03-15T11:36:31.866Z,2.97
2019-03-15T11:39:03.103Z,3.13
2019-03-15T11:41:34.231Z,2.20
2019-03-15T11:44:05.457Z,2.90
2019-03-15T11:46:37.995Z,2.03
2019-03-15T11:49:09.408Z,2.00
2019-03-15T11:51:42.505Z,2.63
2019-03-15T11:54:13.154Z,2.10
2019-03-15T11:56:44.302Z,2.37
2019-03-15T11:59:15.488Z,2.03
2019-03-15T12:01:47.639Z,1.90
2019-03-15T12:04:18.828Z,2.70
2019-03-15T12:06:50.217Z,2.50
2019-03-15T12:09:22.839Z,2.17
2019-03-15T12:11:54.094Z,2.40
2019-03-15T12:14:25.211Z,2.33
2019-03-15T12:16:56.823Z,2.00
2019-03-15T12:19:27.815Z,2.50
2019-03-15T12:22:06.223Z,2.60
2019-03-15T12:24:31.799Z,2.13
2019-03-15T12:27:03.021Z,2.30
2019-03-15T12:29:34.268Z,2.23
2019-03-15T12:32:05.154Z,2.17
2019-03-15T12:34:36.379Z,2.13
2019-03-15T12:37:07.535Z,2.50
2019-03-15T12:39:38.717Z,2.93
2019-03-15T12:42:09.883Z,2.20
2019-03-15T12:44:41.319Z,2.30
2019-03-15T12:47:12.223Z,2.20
2019-03-15T12:49:43.355Z,1.73
2019-03-15T12:52:14.532Z,2.80
2019-03-15T12:54:45.669Z,2.30
2019-03-15T12:57:17.051Z,1.73
2019-03-15T12:59:47.943Z,1.87
2019-03-15T13:02:20.369Z,1.50
2019-03-15T13:04:52.201Z,1.40
2019-03-15T13:07:23.943Z,1.23
2019-03-15T13:09:55.087Z,1.37
2019-03-15T13:12:27.687Z,1.60
2019-03-15T13:14:58.823Z,1.80
2019-03-15T13:17:29.951Z,1.57
2019-03-15T13:20:01.390Z,1.57
2019-03-15T13:22:32.520Z,1.97
2019-03-15T13:25:03.819Z,1.93
2019-03-15T13:27:35.691Z,1.70
2019-03-15T13:30:07.119Z,1.33
2019-03-15T13:32:38.110Z,1.63
2019-03-15T13:35:10.756Z,1.90
2019-03-15T13:37:43.150Z,1.47
2019-03-15T13:40:14.468Z,1.47
2019-03-15T13:42:45.944Z,1.60
2019-03-15T13:45:17.276Z,1.87
2019-03-15T13:47:49.006Z,1.40
2019-03-15T13:50:19.908Z,1.90
2019-03-15T13:52:50.795Z,1.50
2019-03-15T13:55:21.935Z,1.20
2019-03-15T13:57:53.077Z,1.00
2019-03-15T14:00:24.250Z,1.50
2019-03-15T14:02:55.376Z,1.87
2019-03-15T14:05:26.759Z,1.20
2019-03-15T14:08:06.970Z,1.40
2019-03-15T14:10:31.119Z,1.70
2019-03-15T14:13:03.315Z,1.50
2019-03-15T14:15:34.228Z,1.60
2019-03-15T14:18:06.044Z,1.73
2019-03-15T14:20:38.088Z,1.83
2019-03-15T14:23:09.233Z,2.00
2019-03-15T14:25:40.539Z,1.70
2019-03-15T14:28:11.777Z,2.10
2019-03-15T14:30:43.051Z,1.90
2019-03-15T14:33:13.941Z,2.23
2019-03-15T14:35:44.848Z,2.60
2019-03-15T14:38:16.990Z,2.27
2019-03-15T14:40:48.188Z,2.73
2019-03-15T14:43:19.604Z,2.53
2019-03-15T14:45:51.119Z,2.87
2019-03-15T14:48:22.127Z,2.60
2019-03-15T14:50:53.342Z,2.50
2019-03-15T14:53:24.507Z,3.07
2019-03-15T14:55:55.647Z,3.20
2019-03-15T14:58:27.003Z,3.10
2019-03-15T15:00:58.147Z,2.70
2019-03-15T15:03:29.307Z,3.80
2019-03-15T15:06:00.675Z,2.53
2019-03-15T15:08:32.087Z,2.50
2019-03-15T15:11:03.058Z,2.57
2019-03-15T15:13:34.511Z,2.97
2019-03-15T15:16:05.735Z,2.67
2019-03-15T15:18:36.892Z,2.10
2019-03-15T15:21:08.142Z,2.43
2019-03-15T15:23:39.339Z,2.77
2019-03-15T15:26:12.301Z,2.70
2019-03-15T15:28:43.455Z,2.73
2019-03-15T15:31:14.362Z,2.17
2019-03-15T15:33:46.093Z,3.60
2019-03-15T15:36:17.503Z,3.57
2019-03-15T15:38:48.404Z,2.90
2019-03-15T15:41:19.424Z,2.50
2019-03-15T15:43:51.179Z,2.23
2019-03-15T15:46:22.403Z,2.83
2019-03-15T15:48:53.539Z,2.00
2019-03-15T15:51:25.380Z,2.23
2019-03-15T15:53:56.363Z,2.33
2019-03-15T15:56:28.787Z,2.27
2019-03-15T15:59:02.801Z,2.50
2019-03-15T16:01:32.358Z,2.30
2019-03-15T16:04:03.911Z,2.47
2019-03-15T16:06:34.832Z,2.50
2019-03-15T16:09:08.545Z,2.60
2019-03-15T16:11:39.695Z,2.10
2019-03-15T16:14:10.879Z,2.10
2019-03-15T16:16:41.787Z,2.07
2019-03-15T16:19:12.953Z,1.87
2019-03-15T16:21:44.115Z,2.13
2019-03-15T16:24:15.252Z,2.10
2019-03-15T16:26:46.689Z,2.30
2019-03-15T16:29:17.908Z,1.63
2019-03-15T16:31:49.091Z,2.80
2019-03-15T16:34:22.035Z,2.07
2019-03-15T16:36:53.219Z,1.90
2019-03-15T16:39:24.498Z,1.80
2019-03-15T16:41:55.739Z,1.43
2019-03-15T16:44:26.643Z,1.43
2019-03-15T16:46:57.952Z,2.37
2019-03-15T16:49:28.839Z,2.10
2019-03-15T16:52:00.123Z,1.70
2019-03-15T16:54:31.279Z,1.73
2019-03-15T16:57:02.185Z,1.70
2019-03-15T16:59:33.144Z,2.57
2019-03-15T17:02:04.200Z,2.10
2019-03-15T17:04:35.101Z,2.00
2019-03-15T17:07:06.260Z,2.27
2019-03-15T17:09:37.473Z,2.23
2019-03-15T17:12:08.878Z,1.50
2019-03-15T17:14:41.439Z,2.10
2019-03-15T17:17:12.573Z,2.20
2019-03-15T17:19:44.603Z,2.10
2019-03-15T17:22:15.747Z,1.63
2019-03-15T17:24:47.371Z,1.80
2019-03-15T17:27:18.496Z,1.73
2019-03-15T17:29:49.624Z,2.23
2019-03-15T17:32:20.755Z,2.43
2019-03-15T17:34:51.880Z,2.03
2019-03-15T17:37:22.778Z,2.23
2019-03-15T17:39:54.268Z,2.03
2019-03-15T17:42:25.504Z,2.33
2019-03-15T17:44:56.630Z,1.87
2019-03-15T17:47:27.759Z,2.43
2019-03-15T17:49:58.879Z,2.47
2019-03-15T17:52:30.096Z,2.37
2019-03-15T17:55:00.995Z,2.77
2019-03-15T17:57:32.580Z,2.57
2019-03-15T18:00:29.747Z,2.13
2019-03-15T18:03:00.899Z,2.93
2019-03-15T18:05:32.040Z,2.50
2019-03-15T18:08:03.412Z,2.00
2019-03-15T18:10:34.647Z,2.00
2019-03-15T18:13:05.926Z,2.43
2019-03-15T18:15:37.152Z,2.40
2019-03-15T18:18:08.399Z,1.90
2019-03-15T18:20:39.294Z,2.33
2019-03-15T18:23:10.567Z,1.60
2019-03-15T18:25:41.631Z,2.97
2019-03-15T18:28:12.802Z,2.47
2019-03-15T18:30:44.111Z,1.87
2019-03-15T18:33:15.250Z,2.20
2019-03-15T18:35:46.161Z,2.67
2019-03-15T18:38:17.119Z,2.20
2019-03-15T18:40:48.519Z,1.97
2019-03-15T18:43:19.913Z,1.77
2019-03-15T18:45:51.570Z,2.23
2019-03-15T18:48:22.748Z,2.13
2019-03-15T18:50:54.184Z,2.13
2019-03-15T18:53:25.645Z,1.70
2019-03-15T18:55:56.601Z,2.10
2019-03-15T18:58:27.937Z,2.00
2019-03-15T19:00:58.965Z,1.80
2019-03-15T19:03:30.172Z,1.87
2019-03-15T19:06:01.251Z,2.00
2019-03-15T19:08:33.932Z,1.93
2019-03-15T19:11:05.223Z,2.33
2019-03-15T19:13:37.899Z,2.10
2019-03-15T19:16:19.534Z,3.20
2019-03-15T19:18:43.852Z,1.80
2019-03-15T19:21:19.464Z,1.83
2019-03-15T19:23:51.661Z,1.97
2019-03-15T19:26:22.905Z,1.50
2019-03-15T19:28:53.892Z,3.20
2019-03-15T19:31:24.879Z,1.80
2019-03-15T19:33:55.787Z,1.60
2019-03-15T19:36:29.512Z,2.40
2019-03-15T19:39:01.107Z,2.33
2019-03-15T19:41:33.380Z,1.53
2019-03-15T19:44:04.884Z,1.67
2019-03-15T19:46:36.028Z,1.77
2019-03-15T19:49:07.335Z,2.13
2019-03-15T19:51:39.318Z,1.60
2019-03-15T19:54:11.467Z,2.37
2019-03-15T19:56:42.687Z,2.20
2019-03-15T19:59:13.830Z,2.00
2019-03-15T20:01:45.353Z,2.50
2019-03-15T20:04:16.445Z,2.27
2019-03-15T20:06:49.840Z,1.43
2019-03-15T20:09:20.945Z,3.10
2019-03-15T20:11:53.746Z,2.60
2019-03-15T20:14:25.094Z,1.60
2019-03-15T20:16:56.307Z,2.07
2019-03-15T20:19:27.243Z,1.53
2019-03-15T20:21:58.408Z,1.17
2019-03-15T20:24:29.325Z,1.60
2019-03-15T20:27:01.558Z,1.40
2019-03-15T20:29:33.031Z,1.27
2019-03-15T20:32:04.408Z,1.80
2019-03-15T20:34:35.803Z,2.17
2019-03-15T20:37:06.944Z,2.13
2019-03-15T20:39:38.316Z,2.00
2019-03-15T20:42:09.459Z,1.60
2019-03-15T20:44:41.139Z,1.80
2019-03-15T20:47:12.069Z,1.80
2019-03-15T20:49:44.267Z,1.40
2019-03-15T20:52:15.437Z,1.77
2019-03-15T20:54:46.604Z,1.73
2019-03-15T20:57:18.035Z,1.90
2019-03-15T20:59:48.931Z,2.50
2019-03-15T21:02:19.988Z,1.20
2019-03-15T21:04:51.352Z,1.20
2019-03-15T21:07:22.534Z,1.20
2019-03-15T21:09:53.783Z,2.23
2019-03-15T21:12:24.683Z,1.57
2019-03-15T21:14:55.800Z,1.43
2019-03-15T21:17:26.932Z,1.60
2019-03-15T21:19:58.051Z,1.40
2019-03-15T21:22:29.460Z,1.50
2019-03-15T21:25:00.589Z,1.67
2019-03-15T21:27:31.752Z,2.07
2019-03-15T21:30:02.630Z,1.77
2019-03-15T21:32:33.683Z,1.47
2019-03-15T21:35:05.278Z,2.00
2019-03-15T21:37:36.432Z,1.90
2019-03-15T21:40:08.743Z,1.47
2019-03-15T21:42:39.952Z,1.50
2019-03-15T21:45:10.928Z,1.80
2019-03-15T21:47:41.912Z,1.40
2019-03-15T21:50:13.037Z,2.07
2019-03-15T21:52:44.459Z,1.47
2019-03-15T21:55:15.347Z,1.73
2019-03-15T21:57:46.670Z,1.10
2019-03-15T22:00:18.789Z,1.50
2019-03-15T22:02:50.380Z,1.80
2019-03-15T22:05:21.503Z,1.90
2019-03-15T22:07:53.139Z,1.73
2019-03-15T22:10:24.549Z,1.30
2019-03-15T22:12:55.837Z,2.00
2019-03-15T22:15:27.303Z,2.03
2019-03-15T22:17:58.543Z,1.87
2019-03-15T22:20:29.937Z,1.43
2019-03-15T22:23:00.831Z,1.77
2019-03-15T22:25:31.699Z,1.87
2019-03-15T22:28:03.642Z,2.00
2019-03-15T22:30:34.843Z,1.93
2019-03-15T22:33:05.972Z,2.73
2019-03-15T22:35:36.843Z,1.67
2019-03-15T22:38:08.033Z,2.27
2019-03-15T22:40:39.327Z,1.90
2019-03-15T22:43:10.488Z,2.20
2019-03-15T22:45:41.599Z,2.10
2019-03-15T22:48:12.731Z,3.17
2019-03-15T22:50:43.867Z,2.13
2019-03-15T22:53:15.008Z,1.93
2019-03-15T22:55:46.125Z,2.40
2019-03-15T22:58:17.268Z,1.60
2019-03-15T23:00:49.503Z,1.93
2019-03-15T23:03:21.017Z,2.07
2019-03-15T23:05:52.120Z,2.43
2019-03-15T23:08:23.243Z,2.47
2019-03-15T23:10:54.371Z,2.17
2019-03-15T23:13:25.551Z,2.10
2019-03-15T23:15:56.695Z,2.23
2019-03-15T23:18:27.591Z,1.80
2019-03-15T23:20:58.746Z,2.30
2019-03-15T23:23:31.108Z,1.93
2019-03-15T23:26:02.551Z,1.87
2019-03-15T23:28:33.692Z,2.47
2019-03-15T23:31:04.653Z,2.63
2019-03-15T23:33:35.792Z,1.90
2019-03-15T23:36:06.905Z,2.20
2019-03-15T23:38:38.303Z,2.00
2019-03-15T23:41:09.424Z,1.60
2019-03-15T23:43:40.567Z,1.70
2019-03-15T23:46:11.458Z,2.00
2019-03-15T23:48:42.594Z,2.20
2019-03-15T23:51:13.722Z,2.00
2019-03-15T23:53:45.117Z,1.60
2019-03-15T23:56:15.964Z,1.73
2019-03-15T23:58:46.890Z,1.63
